Time;durP1;ratioP1;P1;durP2;ratioP2;P2;SDS_P1;SDS_P2;PMS_P1;PMS_P2;Temp;Humidity;BMP_temperature;BMP_pressure;BME280_temperature;BME280_humidity;BME280_pressure;Samples;Min_cycle;Max_cycle;Signal;HPM_P1;HPM_P2
2022/04/16 00:02:35;;;;;;;34.72;15.20;;;;;;;5.17;95.59;100191.94;8519849;27;20474;-75
2022/04/16 00:06:37;;;;;;;28.98;14.63;;;;;;;5.10;95.40;100204.69;8501243;27;20343;-75
2022/04/16 00:10:39;;;;;;;26.17;13.60;;;;;;;5.14;94.30;100200.44;8541706;27;20042;-75
2022/04/16 00:14:40;;;;;;;22.67;11.65;;;;;;;5.06;93.99;100208.91;8515632;27;20256;-75
2022/04/16 00:18:41;;;;;;;27.00;12.27;;;;;;;4.99;94.21;100202.91;8530117;27;20258;-75
2022/04/16 00:22:42;;;;;;;23.13;11.82;;;;;;;5.01;94.11;100206.16;8522412;27;20377;-74
2022/04/16 00:26:43;;;;;;;20.33;12.32;;;;;;;4.79;94.09;100203.41;8480115;27;20134;-76
2022/04/16 00:30:44;;;;;;;20.13;11.25;;;;;;;4.84;94.61;100213.38;8521390;27;20046;-73
2022/04/16 00:34:48;;;;;;;19.27;9.27;;;;;;;4.78;94.46;100225.06;8523619;27;20058;-75
2022/04/16 00:38:49;;;;;;;18.67;10.40;;;;;;;4.72;93.99;100228.72;8542166;27;20051;-76
2022/04/16 00:42:51;;;;;;;18.95;10.55;;;;;;;4.59;93.82;100224.50;8495462;27;20046;-74
2022/04/16 00:46:53;;;;;;;20.15;10.40;;;;;;;4.54;93.53;100233.25;8521284;27;20647;-74
2022/04/16 00:50:55;;;;;;;18.70;9.50;;;;;;;4.53;93.15;100226.28;8542903;27;20054;-75
2022/04/16 00:54:57;;;;;;;16.45;9.13;;;;;;;4.60;92.55;100237.63;8521873;27;20070;-75
2022/04/16 00:58:58;;;;;;;14.57;8.23;;;;;;;4.58;92.76;100223.69;8530339;27;20083;-75
2022/04/16 01:03:00;;;;;;;13.05;6.95;;;;;;;4.66;91.14;100231.28;8521721;27;20043;-76
2022/04/16 01:07:01;;;;;;;16.13;7.15;;;;;;;4.47;91.30;100248.63;8542959;27;20054;-75
2022/04/16 01:11:02;;;;;;;12.88;6.90;;;;;;;4.42;90.76;100256.56;8540903;27;20408;-75
2022/04/16 01:15:03;;;;;;;10.27;6.28;;;;;;;4.27;91.48;100258.97;8547423;27;20034;-76
2022/04/16 01:19:08;;;;;;;11.98;5.85;;;;;;;4.28;91.87;100275.84;8525008;27;20047;-75
2022/04/16 01:23:09;;;;;;;13.63;6.53;;;;;;;4.33;90.83;100268.72;8520606;27;20049;-76
2022/04/16 01:27:11;;;;;;;10.77;5.70;;;;;;;4.22;91.24;100282.94;8433093;27;20065;-75
2022/04/16 01:31:11;;;;;;;10.30;5.95;;;;;;;4.20;91.11;100285.03;8473160;27;20066;-75
2022/04/16 01:35:13;;;;;;;12.70;5.60;;;;;;;4.13;91.27;100295.03;8532912;27;20138;-75
2022/04/16 01:39:15;;;;;;;12.63;5.90;;;;;;;4.12;91.25;100288.09;8541542;27;20388;-75
2022/04/16 01:43:16;;;;;;;11.75;5.25;;;;;;;4.21;90.26;100297.34;8526200;27;20393;-75
2022/04/16 01:47:16;;;;;;;11.90;5.22;;;;;;;4.07;89.73;100301.38;8545282;27;20062;-75
2022/04/16 01:51:18;;;;;;;8.05;4.57;;;;;;;4.09;89.60;100304.59;8469776;27;20039;-75
2022/04/16 01:55:19;;;;;;;9.85;4.85;;;;;;;4.03;89.70;100311.69;8504780;27;20085;-75
2022/04/16 01:59:20;;;;;;;9.05;4.88;;;;;;;4.10;88.79;100316.91;8546911;27;20420;-75
2022/04/16 02:03:21;;;;;;;10.27;4.80;;;;;;;4.04;89.13;100312.50;8521228;27;20118;-75
2022/04/16 02:07:22;;;;;;;7.03;4.00;;;;;;;3.98;89.17;100313.44;8512979;27;20131;-75
2022/04/16 02:11:23;;;;;;;7.60;4.97;;;;;;;3.90;89.00;100316.50;8528091;27;20095;-75
2022/04/16 02:15:24;;;;;;;10.85;4.55;;;;;;;3.93;88.17;100321.38;8527977;27;20050;-75
2022/04/16 02:19:25;;;;;;;7.72;4.53;;;;;;;3.91;87.94;100328.81;8533517;27;20129;-76
2022/04/16 02:23:26;;;;;;;9.57;4.38;;;;;;;3.80;87.88;100333.97;8520271;27;20492;-75
2022/04/16 02:27:26;;;;;;;9.23;4.80;;;;;;;3.75;87.91;100331.16;8512352;27;20047;-75
2022/04/16 02:31:28;;;;;;;9.73;5.20;;;;;;;3.81;87.63;100338.22;8522965;27;20118;-74
2022/04/16 02:35:29;;;;;;;8.77;5.13;;;;;;;3.77;87.68;100339.75;8515722;27;20050;-76
2022/04/16 02:39:30;;;;;;;9.40;4.68;;;;;;;3.75;87.44;100336.50;8493548;27;20053;-75
2022/04/16 02:43:31;;;;;;;9.15;5.10;;;;;;;3.77;87.72;100339.75;8531614;27;20039;-75
2022/04/16 02:47:32;;;;;;;10.18;5.00;;;;;;;3.64;87.55;100345.34;8523441;27;20046;-75
2022/04/16 02:51:33;;;;;;;8.07;4.68;;;;;;;3.50;87.69;100343.13;8513112;27;20149;-75
2022/04/16 02:55:34;;;;;;;8.07;4.07;;;;;;;3.57;87.49;100350.00;8529179;27;20051;-75
2022/04/16 02:59:35;;;;;;;11.73;4.60;;;;;;;3.60;87.66;100354.84;8529998;27;20059;-75
2022/04/16 03:03:36;;;;;;;7.30;4.13;;;;;;;3.61;86.39;100356.47;8520251;27;20063;-76
2022/04/16 03:07:38;;;;;;;9.07;4.55;;;;;;;3.53;86.27;100348.84;8514371;27;20166;-76
2022/04/16 03:11:40;;;;;;;12.50;4.50;;;;;;;3.51;86.60;100360.78;8529264;27;20043;-75
2022/04/16 03:20:09;;;;;;;12.50;4.28;;;;;;;3.42;86.38;100373.69;8526573;27;20065;-75
2022/04/16 03:24:10;;;;;;;6.72;3.50;;;;;;;3.38;86.25;100367.19;8512507;27;20047;-76
2022/04/16 03:28:12;;;;;;;10.85;4.18;;;;;;;3.30;85.77;100375.50;8561002;27;20038;-75
2022/04/16 03:32:13;;;;;;;8.60;4.45;;;;;;;3.30;86.24;100381.66;8521044;27;20103;-75
2022/04/16 03:36:14;;;;;;;13.63;3.88;;;;;;;3.23;85.19;100374.78;8542783;27;20060;-75
2022/04/16 03:40:15;;;;;;;10.45;3.70;;;;;;;3.26;85.75;100379.69;8540917;27;20046;-75
2022/04/16 03:44:16;;;;;;;5.57;3.20;;;;;;;3.15;85.07;100383.16;8531042;27;20051;-76
2022/04/16 03:48:17;;;;;;;8.77;3.20;;;;;;;3.17;84.55;100381.06;8521888;27;20070;-76
2022/04/16 03:52:18;;;;;;;8.40;3.63;;;;;;;3.06;85.23;100373.84;8541830;27;20057;-75
2022/04/16 04:00:39;;;;;;;7.43;3.95;;;;;;;3.04;85.24;100370.59;8538671;27;20043;-74
2022/04/16 04:04:43;;;;;;;12.57;3.83;;;;;;;3.03;85.21;100363.63;8547624;27;20613;-75
2022/04/16 04:08:44;;;;;;;11.18;3.63;;;;;;;3.07;85.19;100370.16;8538247;27;20468;-75
2022/04/16 04:12:45;;;;;;;9.23;3.90;;;;;;;3.03;85.07;100376.97;8536383;27;20055;-75
2022/04/16 04:16:46;;;;;;;10.20;4.18;;;;;;;3.04;85.44;100381.25;8464255;27;20516;-74
2022/04/16 04:20:47;;;;;;;7.47;3.88;;;;;;;3.02;85.53;100372.66;8544309;27;20042;-76
2022/04/16 04:24:48;;;;;;;10.77;3.90;;;;;;;3.00;85.52;100385.44;8508968;27;20039;-75
2022/04/16 04:28:49;;;;;;;8.40;4.38;;;;;;;3.07;85.31;100386.16;8532454;27;20042;-75
2022/04/16 04:32:50;;;;;;;9.38;3.75;;;;;;;3.08;85.32;100398.44;8549533;27;20419;-75
2022/04/16 04:36:52;;;;;;;12.98;5.35;;;;;;;3.12;85.02;100410.31;8506206;27;20039;-76
2022/04/16 04:40:53;;;;;;;18.15;6.40;;;;;;;3.07;85.01;100424.31;8512530;27;20480;-75
2022/04/16 04:44:54;;;;;;;34.53;15.57;;;;;;;3.11;84.98;100435.38;8504238;27;20050;-77
2022/04/16 04:48:55;;;;;;;9.75;5.22;;;;;;;3.10;84.99;100444.41;8508787;27;20048;-75
2022/04/16 04:52:56;;;;;;;9.52;4.88;;;;;;;3.04;85.05;100450.66;8507113;27;20050;-74
2022/04/16 04:56:57;;;;;;;8.70;5.53;;;;;;;3.09;85.43;100456.13;8471247;27;20054;-75
2022/04/16 05:00:58;;;;;;;10.45;5.13;;;;;;;3.16;85.08;100454.19;8501668;27;20035;-74
2022/04/16 05:04:59;;;;;;;11.52;4.18;;;;;;;3.23;85.36;100454.88;8514490;27;20046;-74
2022/04/16 05:09:00;;;;;;;11.05;5.25;;;;;;;3.16;85.07;100464.88;8514065;27;20089;-75
2022/04/16 05:13:02;;;;;;;14.52;5.05;;;;;;;3.14;85.17;100472.28;8512485;27;20034;-75
2022/04/16 05:17:03;;;;;;;15.38;7.88;;;;;;;3.22;85.27;100471.97;8509036;27;20047;-75
2022/04/16 05:21:04;;;;;;;11.85;5.43;;;;;;;3.16;85.33;100480.88;8510487;27;20046;-74
2022/04/16 05:25:06;;;;;;;13.95;5.75;;;;;;;3.13;85.04;100487.47;8505250;27;20056;-74
2022/04/16 05:29:07;;;;;;;11.02;5.15;;;;;;;3.09;85.27;100485.47;8512095;27;20038;-74
2022/04/16 05:34:18;;;;;;;11.10;5.30;;;;;;;3.10;85.30;100492.47;8549616;27;20488;-74
2022/04/16 05:37:29;;;;;;;10.73;5.40;;;;;;;3.20;84.96;100487.38;8547649;27;20061;-74
2022/04/16 05:41:32;;;;;;;10.82;5.28;;;;;;;3.13;84.98;100508.00;8531800;27;20038;-74
2022/04/16 05:45:34;;;;;;;12.13;5.22;;;;;;;3.17;85.01;100509.22;8547359;27;20052;-75
2022/04/16 05:49:35;;;;;;;9.57;5.45;;;;;;;3.18;85.28;100513.47;8498086;27;20072;-76
2022/04/16 05:53:36;;;;;;;7.55;4.88;;;;;;;3.32;84.88;100514.94;8528761;27;20106;-75
2022/04/16 05:57:37;;;;;;;9.63;5.38;;;;;;;3.30;84.81;100525.03;8558032;27;20042;-75
2022/04/16 06:01:38;;;;;;;11.70;6.28;;;;;;;3.27;85.00;100528.16;8544560;27;20064;-76
2022/04/16 06:05:39;;;;;;;13.48;6.18;;;;;;;3.38;84.82;100516.72;8518479;27;20615;-76
2022/04/16 06:09:40;;;;;;;10.40;6.32;;;;;;;3.48;84.74;100521.50;8487861;27;20421;-75
2022/04/16 06:13:41;;;;;;;9.82;5.78;;;;;;;3.49;84.72;100523.13;8535704;27;20130;-76
2022/04/16 06:17:42;;;;;;;11.13;6.03;;;;;;;3.62;84.28;100531.75;8518852;27;20034;-76
2022/04/16 06:21:42;;;;;;;11.10;6.05;;;;;;;3.78;84.60;100528.44;8528378;27;20149;-75
2022/04/16 06:25:43;;;;;;;11.55;6.15;;;;;;;3.96;83.33;100540.09;8527805;27;20046;-75
2022/04/16 06:29:44;;;;;;;9.40;6.50;;;;;;;4.01;82.78;100532.19;8518131;27;20548;-75
2022/04/16 06:33:45;;;;;;;11.35;6.70;;;;;;;4.16;82.05;100535.22;8530230;27;20043;-75
2022/04/16 06:37:46;;;;;;;10.35;6.20;;;;;;;4.17;81.89;100540.34;8518851;27;20074;-75
2022/04/16 06:41:47;;;;;;;11.27;5.70;;;;;;;4.18;81.32;100549.16;8509723;27;20120;-76
2022/04/16 06:45:48;;;;;;;12.88;5.35;;;;;;;4.27;80.73;100553.13;8517334;27;20070;-74
2022/04/16 06:49:49;;;;;;;8.57;5.63;;;;;;;4.29;79.47;100551.00;8513916;27;20099;-76
2022/04/16 06:53:51;;;;;;;10.77;5.82;;;;;;;4.28;79.66;100554.75;8516650;27;20576;-74
2022/04/16 06:57:52;;;;;;;12.05;5.78;;;;;;;4.40;79.21;100568.94;8483598;27;20043;-76
2022/04/16 07:01:52;;;;;;;14.18;5.60;;;;;;;4.51;77.39;100565.44;8532168;27;20141;-75
2022/04/16 07:05:53;;;;;;;7.65;5.20;;;;;;;4.49;77.65;100567.56;8516234;27;20550;-75
2022/04/16 07:09:54;;;;;;;7.53;5.38;;;;;;;4.61;77.47;100570.19;8528062;27;20062;-75
2022/04/16 07:13:55;;;;;;;14.73;5.88;;;;;;;4.72;77.63;100571.25;8498206;27;20039;-75
2022/04/16 07:17:56;;;;;;;9.27;5.80;;;;;;;4.78;77.00;100581.00;8549776;27;20547;-75
2022/04/16 07:21:58;;;;;;;8.95;5.05;;;;;;;4.93;75.89;100578.66;8533135;27;20137;-76
2022/04/16 07:25:58;;;;;;;10.48;4.97;;;;;;;5.31;73.97;100581.59;8497967;27;20164;-76
2022/04/16 07:30:00;;;;;;;9.93;5.10;;;;;;;5.57;73.16;100592.78;8535026;27;20114;-76
2022/04/16 07:34:00;;;;;;;10.02;5.10;;;;;;;5.43;72.74;100595.75;8534225;27;20069;-76
2022/04/16 07:38:01;;;;;;;11.15;5.40;;;;;;;5.50;72.00;100590.25;8514133;27;20043;-75
2022/04/16 07:42:02;;;;;;;12.85;5.55;;;;;;;5.30;71.85;100601.38;8527850;27;20512;-75
2022/04/16 07:46:03;;;;;;;9.77;4.88;;;;;;;5.19;72.69;100602.22;8488674;27;20046;-76
2022/04/16 07:50:05;;;;;;;7.43;5.05;;;;;;;4.93;72.66;100600.88;8527642;27;20547;-75
2022/04/16 07:54:06;;;;;;;9.88;4.45;;;;;;;5.05;72.32;100598.19;8516606;27;20039;-75
2022/04/16 07:58:07;;;;;;;11.57;4.78;;;;;;;5.57;72.58;100600.81;8525738;27;20074;-76
2022/04/16 08:02:08;;;;;;;7.13;3.90;;;;;;;6.14;70.67;100597.06;8528072;27;20053;-75
2022/04/16 08:06:09;;;;;;;5.38;4.05;;;;;;;6.38;68.84;100599.59;8515258;27;20051;-75
2022/04/16 08:10:11;;;;;;;6.10;4.43;;;;;;;6.06;67.23;100616.25;8483687;27;20498;-76
2022/04/16 08:14:12;;;;;;;9.40;5.03;;;;;;;5.99;67.12;100620.94;8459687;27;20042;-75
2022/04/16 08:18:14;;;;;;;5.78;3.60;;;;;;;6.12;67.18;100620.63;8462607;27;20055;-75
2022/04/16 08:22:21;;;;;;;7.75;2.97;;;;;;;6.05;65.09;100625.34;8500605;27;20540;-75
2022/04/16 08:26:23;;;;;;;5.22;3.30;;;;;;;6.22;64.72;100620.81;8540454;27;20050;-76
2022/04/16 08:30:24;;;;;;;5.40;2.92;;;;;;;6.69;63.89;100623.16;8507140;27;20038;-76
2022/04/16 08:34:26;;;;;;;7.10;3.53;;;;;;;6.91;62.83;100617.81;8501940;27;20054;-76
2022/04/16 08:38:26;;;;;;;6.88;3.88;;;;;;;6.59;64.32;100625.69;8461463;27;20070;-77
2022/04/16 08:42:28;;;;;;;4.50;2.83;;;;;;;6.61;63.82;100634.31;8500322;27;20051;-76
2022/04/16 08:46:31;;;;;;;5.60;3.35;;;;;;;6.40;65.33;100638.53;8513635;27;20047;-76
2022/04/16 08:50:33;;;;;;;4.53;2.53;;;;;;;6.44;64.34;100622.75;8484825;27;20381;-76
2022/04/16 08:54:36;;;;;;;7.25;2.38;;;;;;;6.27;63.19;100628.94;8494998;27;20043;-77
2022/04/16 08:58:38;;;;;;;4.95;2.50;;;;;;;6.50;63.50;100621.78;8531719;27;20050;-77
2022/04/16 09:02:49;;;;;;;5.82;2.80;;;;;;;7.05;62.42;100627.94;8495008;27;20073;-76
2022/04/16 09:06:58;;;;;;;6.75;2.72;;;;;;;7.62;60.22;100619.50;8531462;27;20047;-77
2022/04/16 09:11:12;;;;;;;4.88;2.03;;;;;;;7.89;59.47;100614.94;8507005;27;20038;-77
2022/04/16 09:15:14;;;;;;;2.72;1.73;;;;;;;8.06;56.75;100626.41;8531917;27;20719;-76
2022/04/16 09:19:21;;;;;;;4.57;1.90;;;;;;;8.21;55.08;100622.22;8520153;27;20039;-76
2022/04/16 09:23:22;;;;;;;4.90;1.80;;;;;;;8.44;54.63;100632.69;8508724;27;20047;-76
2022/04/16 09:27:23;;;;;;;3.83;1.70;;;;;;;8.58;52.98;100639.25;8538868;27;20046;-74
2022/04/16 09:31:28;;;;;;;2.17;1.48;;;;;;;8.65;52.42;100645.25;8500559;27;20385;-77
2022/04/16 09:35:35;;;;;;;3.83;1.77;;;;;;;8.73;51.39;100652.81;8527007;27;20055;-76
2022/04/16 09:39:36;;;;;;;3.28;1.77;;;;;;;8.78;52.52;100658.25;8510446;27;20049;-77
2022/04/16 09:43:38;;;;;;;4.43;2.08;;;;;;;8.31;52.83;100658.16;8517372;27;20035;-78
2022/04/16 09:47:42;;;;;;;2.78;1.40;;;;;;;8.14;54.49;100659.31;8543798;27;20499;-77
2022/04/16 09:51:45;;;;;;;3.90;1.60;;;;;;;8.36;53.50;100662.75;8565170;27;20403;-76
2022/04/16 09:55:46;;;;;;;5.10;1.90;;;;;;;8.51;53.05;100649.44;8474992;27;20129;-77
2022/04/16 09:59:51;;;;;;;5.60;1.90;;;;;;;9.22;53.65;100663.38;8501703;27;20529;-78
2022/04/16 10:03:54;;;;;;;5.53;2.25;;;;;;;9.57;53.16;100663.50;8512025;27;20420;-77
2022/04/16 10:07:57;;;;;;;5.93;2.10;;;;;;;9.08;48.88;100670.31;8500891;27;20492;-78
2022/04/16 10:16:26;;;;;;;4.82;2.13;;;;;;;9.60;49.79;100689.97;8529394;27;20469;-76
2022/04/16 10:20:28;;;;;;;4.53;2.70;;;;;;;8.84;51.49;100665.28;8518372;27;20777;-77
2022/04/16 10:24:29;;;;;;;5.50;2.83;;;;;;;8.34;52.21;100681.88;8502594;27;20066;-77
2022/04/16 10:28:44;;;;;;;3.67;2.20;;;;;;;8.57;53.75;100677.19;8523544;27;20155;-77
2022/04/16 10:32:45;;;;;;;4.82;2.50;;;;;;;9.11;53.14;100669.78;8509067;27;20055;-78
2022/04/16 10:36:54;;;;;;;6.97;3.22;;;;;;;9.23;50.95;100673.09;8513606;27;20682;-79
2022/04/16 10:41:10;;;;;;;4.78;2.95;;;;;;;9.66;50.92;100672.75;8518445;27;20050;-77
2022/04/16 10:45:12;;;;;;;6.05;2.42;;;;;;;9.37;49.68;100682.31;8510976;27;20485;-80
2022/04/16 10:49:18;;;;;;;4.10;2.45;;;;;;;9.61;48.65;100680.81;8510889;27;20121;-77
2022/04/16 10:53:27;;;;;;;4.80;3.33;;;;;;;9.51;49.70;100686.16;8511775;27;20058;-75
2022/04/16 10:57:28;;;;;;;5.40;2.95;;;;;;;9.63;50.24;100681.34;8502480;27;20079;-77
2022/04/16 11:01:30;;;;;;;7.28;3.30;;;;;;;9.64;48.76;100685.66;8491812;27;20043;-79
2022/04/16 11:05:35;;;;;;;6.63;3.35;;;;;;;9.84;49.34;100684.09;8507451;27;20051;-77
2022/04/16 11:09:37;;;;;;;6.63;3.00;;;;;;;9.47;49.06;100695.84;8511190;27;20073;-78
2022/04/16 11:13:40;;;;;;;5.82;3.25;;;;;;;9.53;49.38;100699.38;8499957;27;20072;-78
2022/04/16 11:17:41;;;;;;;5.50;2.50;;;;;;;9.97;47.57;100702.50;8515186;27;20376;-78
2022/04/16 11:21:43;;;;;;;5.35;2.40;;;;;;;10.36;47.40;100703.72;8498496;27;20059;-79
2022/04/16 11:34:38;;;;;;;6.15;2.88;;;;;;;10.47;47.35;100716.13;8390109;28;20044;-76
2022/04/16 11:38:42;;;;;;;6.50;2.85;;;;;;;10.46;46.64;100711.00;8376365;28;20406;-78
2022/04/16 11:42:46;;;;;;;3.90;2.28;;;;;;;10.69;47.56;100728.56;8395771;28;20052;-78
2022/04/16 11:46:47;;;;;;;4.55;3.17;;;;;;;10.74;46.77;100712.34;8400240;28;20057;-79
2022/04/16 11:50:49;;;;;;;7.10;2.45;;;;;;;10.70;45.45;100713.97;8395432;28;20132;-79
2022/04/16 11:55:01;;;;;;;5.93;2.67;;;;;;;10.48;46.15;100701.53;8363483;28;20133;-79
2022/04/16 11:59:02;;;;;;;6.25;2.97;;;;;;;10.83;46.08;100697.22;8398855;28;20544;-79
2022/04/16 12:03:03;;;;;;;5.88;3.13;;;;;;;11.43;46.24;100707.91;8395716;28;20078;-80
2022/04/16 12:07:11;;;;;;;8.05;3.08;;;;;;;10.71;45.79;100726.41;8481032;27;20546;-76
2022/04/16 12:11:16;;;;;;;9.88;3.03;;;;;;;10.67;47.36;100711.84;8482517;27;20173;-77
2022/04/16 12:15:22;;;;;;;3.90;2.00;;;;;;;10.91;45.57;100715.59;8515142;27;20491;-76
2022/04/16 12:19:23;;;;;;;7.60;4.03;;;;;;;11.49;45.01;100710.59;8522947;27;20483;-77
2022/04/16 12:23:25;;;;;;;4.30;2.72;;;;;;;11.71;42.38;100719.19;8517689;27;20049;-73
2022/04/16 12:27:27;;;;;;;5.57;2.33;;;;;;;11.28;43.46;100726.91;8500166;27;20408;-77
2022/04/16 12:31:32;;;;;;;5.90;2.63;;;;;;;11.40;43.27;100724.72;8507419;27;20043;-75
2022/04/16 12:35:34;;;;;;;5.35;2.60;;;;;;;11.68;43.93;100719.75;8512346;27;20062;-76
2022/04/16 12:39:35;;;;;;;6.43;2.60;;;;;;;11.43;44.04;100718.75;8515021;27;20528;-76
2022/04/16 12:43:40;;;;;;;6.70;2.50;;;;;;;11.57;42.52;100726.28;8511914;27;20082;-77
2022/04/16 12:47:41;;;;;;;8.52;2.75;;;;;;;11.60;43.45;100712.19;8517868;27;20047;-77
2022/04/16 12:51:47;;;;;;;5.95;2.70;;;;;;;10.75;44.44;100722.09;8515828;27;20055;-76
2022/04/16 12:55:49;;;;;;;3.70;2.53;;;;;;;11.06;44.36;100718.28;8445805;27;20035;-76
2022/04/16 12:59:49;;;;;;;6.60;3.42;;;;;;;11.73;44.83;100711.66;8514733;27;20173;-76
2022/04/16 13:03:51;;;;;;;3.58;2.17;;;;;;;11.64;42.49;100716.78;8481379;27;20498;-75
2022/04/16 13:07:52;;;;;;;6.32;2.50;;;;;;;11.47;42.94;100719.03;8509627;27;20054;-76
2022/04/16 13:11:53;;;;;;;3.88;2.42;;;;;;;11.15;42.37;100722.06;8512267;27;20050;-76
2022/04/16 13:15:54;;;;;;;2.85;2.13;;;;;;;11.14;42.93;100704.22;8521635;27;20514;-75
2022/04/16 13:19:55;;;;;;;4.18;2.30;;;;;;;11.42;42.35;100700.88;8518368;27;20053;-76
2022/04/16 13:23:56;;;;;;;5.47;2.47;;;;;;;11.68;41.05;100692.69;8448389;27;20074;-75
2022/04/16 13:27:57;;;;;;;4.43;2.20;;;;;;;11.54;42.61;100705.19;8519618;27;20046;-74
2022/04/16 13:31:59;;;;;;;9.23;2.15;;;;;;;10.97;42.63;100709.09;8453972;27;20078;-76
2022/04/16 13:36:00;;;;;;;6.63;2.17;;;;;;;12.89;41.39;100702.75;8518690;27;20051;-76
2022/04/16 13:44:35;;;;;;;5.82;2.20;;;;;;;12.32;40.88;100699.97;8403630;28;20055;-77
2022/04/16 13:48:36;;;;;;;5.60;1.90;;;;;;;12.27;39.88;100707.00;8395918;28;20044;-76
2022/04/16 13:52:37;;;;;;;4.45;1.90;;;;;;;12.60;39.02;100699.19;8359306;28;20534;-76
2022/04/16 13:56:39;;;;;;;3.78;2.10;;;;;;;15.52;36.80;100682.66;8393414;28;20124;-77
2022/04/16 14:00:40;;;;;;;6.15;2.00;;;;;;;17.53;33.97;100674.50;8391301;28;20052;-77
2022/04/16 14:09:00;;;;;;;;;;;;;;;14.37;34.91;100683.63;8409732;28;20446;-77
2022/04/16 14:13:01;;;;;;;10.63;3.45;;;;;;;14.30;36.85;100683.13;8403933;28;19921;-77
2022/04/16 14:17:02;;;;;;;7.45;3.05;;;;;;;16.55;34.01;100673.84;8389932;28;20040;-77
2022/04/16 14:21:11;;;;;;;5.28;2.40;;;;;;;16.33;34.06;100675.44;8489594;27;20046;-77
2022/04/16 14:25:16;;;;;;;5.38;2.38;;;;;;;16.88;31.29;100675.19;8529608;27;20046;-76
2022/04/16 14:29:17;;;;;;;5.53;2.85;;;;;;;15.48;32.56;100684.34;8526342;27;20059;-76
2022/04/16 14:33:18;;;;;;;9.95;3.03;;;;;;;13.87;34.09;100691.34;8491592;27;20031;-76
2022/04/16 14:37:20;;;;;;;10.82;4.55;;;;;;;13.65;35.10;100666.66;8506076;27;20404;-77
2022/04/16 14:41:21;;;;;;;9.18;2.33;;;;;;;14.73;35.17;100673.78;8538637;27;20042;-76
2022/04/16 14:45:22;;;;;;;6.45;2.83;;;;;;;14.11;35.33;100675.00;8513502;27;20129;-77
2022/04/16 14:49:23;;;;;;;7.88;3.22;;;;;;;13.10;35.67;100687.91;8525639;27;20057;-75
2022/04/16 14:53:24;;;;;;;60.17;15.80;;;;;;;14.50;34.04;100674.69;8521935;27;20047;-75
2022/04/16 14:57:28;;;;;;;11.35;5.10;;;;;;;15.65;32.98;100674.81;8516408;27;20058;-76
2022/04/16 15:01:30;;;;;;;7.15;4.15;;;;;;;16.54;32.66;100669.50;8478842;27;20057;-76
2022/04/16 15:05:31;;;;;;;4.40;2.50;;;;;;;18.48;29.42;100662.56;8527868;27;20066;-76
2022/04/16 15:09:32;;;;;;;4.75;2.00;;;;;;;18.76;28.11;100674.00;8528269;27;20423;-76
2022/04/16 15:13:33;;;;;;;2.63;1.67;;;;;;;18.52;27.34;100668.19;8510897;27;20059;-77
2022/04/16 15:17:37;;;;;;;2.25;1.42;;;;;;;17.56;27.97;100657.47;8505943;27;20043;-78
2022/04/16 15:21:39;;;;;;;3.60;1.80;;;;;;;16.69;29.26;100664.50;8466575;27;20118;-77
2022/04/16 15:25:46;;;;;;;3.63;1.80;;;;;;;14.95;32.40;100677.75;8525795;27;20107;-77
2022/04/16 15:29:47;;;;;;;4.30;2.00;;;;;;;14.40;33.25;100669.41;8513621;27;20081;-75
2022/04/16 15:33:48;;;;;;;4.75;2.30;;;;;;;13.58;34.92;100671.66;8515941;27;20047;-76
2022/04/16 15:37:51;;;;;;;4.93;3.10;;;;;;;13.98;34.51;100658.63;8482485;27;20050;-77
2022/04/16 15:41:52;;;;;;;4.10;2.40;;;;;;;14.28;34.15;100669.03;8477261;27;20567;-75
2022/04/16 15:45:53;;;;;;;4.65;2.30;;;;;;;15.56;32.72;100671.97;8534053;27;20175;-76
2022/04/16 15:49:56;;;;;;;5.22;2.13;;;;;;;15.47;31.94;100663.69;8549199;27;20043;-76
2022/04/16 15:53:57;;;;;;;4.43;1.90;;;;;;;15.35;32.10;100660.66;8533852;27;20095;-77
2022/04/16 15:57:58;;;;;;;5.65;2.30;;;;;;;15.55;32.25;100671.16;8546700;27;20080;-76
2022/04/16 16:01:59;;;;;;;4.15;1.90;;;;;;;14.26;33.95;100665.81;8540592;27;20492;-76
2022/04/16 16:06:00;;;;;;;4.03;1.95;;;;;;;12.76;36.02;100676.28;8533408;27;20057;-76
2022/04/16 16:10:01;;;;;;;4.70;2.08;;;;;;;12.22;37.28;100676.44;8508992;27;20409;-78
2022/04/16 16:14:02;;;;;;;4.20;2.38;;;;;;;12.48;37.77;100668.91;8525607;27;20052;-76
2022/04/16 16:18:03;;;;;;;3.90;1.88;;;;;;;12.53;37.58;100677.03;8530513;27;20042;-76
2022/04/16 16:22:04;;;;;;;5.78;2.00;;;;;;;12.01;38.03;100675.75;8532871;27;20519;-76
2022/04/16 16:26:05;;;;;;;4.50;2.03;;;;;;;11.32;39.02;100673.88;8528842;27;20548;-76
2022/04/16 16:30:07;;;;;;;10.63;2.22;;;;;;;11.15;40.19;100678.81;8486817;27;20047;-76
2022/04/16 16:34:09;;;;;;;3.60;2.30;;;;;;;10.79;40.20;100674.50;8524514;27;20034;-76
2022/04/16 16:38:10;;;;;;;5.97;2.33;;;;;;;10.88;40.62;100678.31;8501802;27;20085;-74
2022/04/16 16:42:12;;;;;;;7.85;2.08;;;;;;;10.98;40.91;100672.88;8506325;27;20131;-76
2022/04/16 16:46:14;;;;;;;2.55;1.75;;;;;;;10.72;41.48;100671.31;8503790;27;20065;-76
2022/04/16 16:50:15;;;;;;;5.07;2.45;;;;;;;10.58;40.97;100674.53;8531470;27;20515;-76
2022/04/16 16:54:17;;;;;;;6.18;2.40;;;;;;;10.44;41.40;100673.47;8524822;27;20064;-77
2022/04/16 16:58:18;;;;;;;3.60;1.98;;;;;;;10.20;41.86;100677.78;8516559;27;20099;-75
2022/04/16 17:06:38;;;;;;;4.80;2.30;;;;;;;9.93;42.18;100677.13;8484912;27;20543;-76
2022/04/16 17:10:44;;;;;;;4.80;1.92;;;;;;;9.85;42.55;100673.06;8487583;27;20042;-75
2022/04/16 17:19:04;;;;;;;;;;;;;;;9.47;42.98;100679.66;8489917;27;20111;-75
2022/04/16 17:23:08;;;;;;;5.60;2.15;;;;;;;9.44;43.60;100688.28;8514639;27;19972;-76
2022/04/16 17:27:12;;;;;;;5.03;2.13;;;;;;;9.30;43.92;100681.75;8504000;27;20046;-77
2022/04/16 17:31:15;;;;;;;4.10;2.20;;;;;;;9.20;44.30;100679.78;8453386;27;20134;-76
2022/04/16 17:35:17;;;;;;;3.00;1.77;;;;;;;9.10;44.75;100684.31;8515596;27;20043;-76
2022/04/16 17:39:18;;;;;;;14.52;6.65;;;;;;;9.02;44.87;100688.31;8482207;27;20043;-76
2022/04/16 17:43:19;;;;;;;6.68;2.78;;;;;;;8.83;44.91;100690.59;8487890;27;20163;-76
2022/04/16 17:47:21;;;;;;;4.13;2.08;;;;;;;8.68;45.52;100693.19;8494930;27;20069;-76
2022/04/16 17:51:22;;;;;;;6.55;2.95;;;;;;;8.51;46.60;100692.53;8483934;27;20044;-76
2022/04/16 17:55:23;;;;;;;79.30;41.10;;;;;;;8.43;46.92;100695.69;8494000;27;20121;-77
2022/04/16 17:59:25;;;;;;;12.88;5.93;;;;;;;8.25;47.47;100693.34;8476956;27;20044;-76
2022/04/16 18:03:26;;;;;;;3.22;1.70;;;;;;;8.07;48.02;100708.75;8485619;27;20277;-76
2022/04/16 18:07:27;;;;;;;6.28;4.05;;;;;;;7.96;48.70;100709.72;8495691;27;20226;-76
2022/04/16 18:11:28;;;;;;;12.00;6.43;;;;;;;7.73;49.22;100707.28;8491932;27;20051;-76
2022/04/16 18:15:29;;;;;;;8.40;4.18;;;;;;;7.70;48.99;100707.81;8493435;27;20051;-76
2022/04/16 18:19:31;;;;;;;6.38;2.88;;;;;;;7.56;49.81;100711.94;8458772;27;20125;-76
2022/04/16 18:23:32;;;;;;;6.38;3.25;;;;;;;7.41;51.29;100714.41;8493997;27;20099;-76
2022/04/16 18:27:34;;;;;;;2.92;2.20;;;;;;;7.19;52.66;100723.25;8468214;27;20039;-76
2022/04/16 18:31:35;;;;;;;8.35;2.40;;;;;;;7.05;53.85;100721.16;8489405;27;20047;-76
2022/04/16 18:35:37;;;;;;;11.35;3.25;;;;;;;6.87;54.83;100735.66;8488020;27;20085;-79
2022/04/16 18:39:39;;;;;;;6.50;2.97;;;;;;;6.73;55.29;100728.97;8508261;27;20064;-76
2022/04/16 18:43:41;;;;;;;5.38;2.42;;;;;;;6.58;55.92;100742.16;8442244;28;20049;-76
2022/04/16 18:47:42;;;;;;;5.18;2.67;;;;;;;6.46;56.63;100733.34;8504842;27;20046;-75
2022/04/16 18:51:43;;;;;;;4.47;2.65;;;;;;;6.28;57.83;100743.25;8528540;27;20428;-76
2022/04/16 18:55:44;;;;;;;6.43;2.90;;;;;;;6.10;58.12;100746.13;8501907;27;20046;-76
2022/04/16 18:59:45;;;;;;;7.03;2.92;;;;;;;6.00;58.72;100740.56;8529076;27;20047;-76
2022/04/16 19:08:07;;;;;;;11.63;4.55;;;;;;;5.74;59.99;100741.09;8529950;27;20047;-75
2022/04/16 19:12:10;;;;;;;9.45;4.25;;;;;;;5.57;60.95;100745.53;8508983;27;20039;-76
2022/04/16 19:16:11;;;;;;;10.07;4.38;;;;;;;5.46;60.97;100745.31;8520513;27;20053;-76
2022/04/16 19:20:13;;;;;;;8.88;5.07;;;;;;;5.33;61.61;100750.94;8522479;27;20492;-76
2022/04/16 19:24:15;;;;;;;12.45;5.88;;;;;;;5.31;61.59;100747.66;8511399;27;20072;-76
2022/04/16 19:28:16;;;;;;;12.35;5.75;;;;;;;5.22;61.77;100754.44;8522125;27;20404;-76
2022/04/16 19:32:18;;;;;;;17.77;7.38;;;;;;;5.09;62.07;100762.69;8460017;27;20067;-76
2022/04/16 19:36:20;;;;;;;15.30;8.00;;;;;;;5.02;62.63;100759.34;8476021;27;20051;-77